Ponteareas, Spain
Current Conditions -  °F | °C
As of 1:00 PM on Saturday 20 Dec 2014 (Local Time) from LEVX Reporting Station
Broken Clouds Broken Clouds  
Wind Chill: 52°   Ceiling: 5000
Heat Index: 52°   Visibility: 6mi
Dew Point: 50°   Wind: 1mph
Humidity: 94%   Direction: NA
Pressure: 30.56"   Gusts: NA
Location:  42.18°N, 8.5°W
Report Text: LEVX 201200Z VRB01KT 9999 FEW037 BKN050 11/10 Q1035 NOSIG
Loading
Personal Weather Stations






























Interactive Weather Map New forecast layout! Learn more

10-Day Weather Forecast

Advertisements
Track Severe Weather on mobile